Aeroporto :
LOGIN :

Iscrizione | Disclaimer

   EN    FR    IT 

 










Sommario :    VFR   VFR Marginale   IFR   IFR Intensivo   IFR Molto Intensivo
Visibilità : 
Base nubi : 
>= 8 km
>= 3000ft
5 / 8 km
1000 / 3000 ft
1500m / 5 km
500 / 1000 ft
800 / 1500m
200 / 500 ft
< 800m
< 200 ft
Simboli :   Temporali  Nebbia  Neve Forte  Precipitazioni Forti  Vento > 20 kt
SIGMETs :   Varie  Temporali  Ghiacco  Turbolenza  Onda orograficha  Ceneri Vulcaniche







- Altitudine del aeroporto : 1306 ft
- Codice IATA : ACH


LSZR - Alten Rhein

ULTIMO METAR :
  • 232020Z AUTO 27012KT 210V300 7000 +RA FEW015 BKN041CB 15/14 Q1018 RETSRA

METARs OBSOLETI :
  • 231950Z AUTO 31020G33KT 280V340 4600 +TSRA BR FEW010 SCT022 OVC042CB 16/14 Q1016 RERA
  • 231920Z AUTO 26013G28KT 230V290 9999 FEW060TCU OVC100 25/14 Q1012
  • 231850Z AUTO 25014G27KT 200V310 9999 FEW060TCU SCT100 OVC120 26/14 Q1011
  • 231820Z AUTO 25010G22KT 200V290 9999 NSC 25/14 Q1011
  • 231750Z 17003KT 130V240 CAVOK 24/15 Q1011 NOSIG RMK N

TAF TAF LSZR
Valido dal 23 a 15 ore il 24 a 00 ore UTC


231425Z 2315/2324 31006KT CAVOK
BECMG 2315/2318 31015G25KT BKN050
BECMG 2318/2321 31025G40KT
PROB40
TEMPO 2319/2321 30030G60KT TSRA SCT030CB
BECMG 2321/2324 30010KT
ATIS : +41 71 858 51 66
Nessun NOTAM noto per questo aeroporto.
3 SIGMETs conosciuti per la FIR Switzerland (LSAS) :
 
Cancellazione del SIGMET 7 
LSAS SIGMET 8 VALID 232005/232130 LSZH
LSAS SWITZERLAND FIR/UIR CNL SIGMET 7 231850/232130=
SIGMET 7  ANNULATO :
Linea di groppi
LSAS SIGMET 7 VALID 231850/232130 LSZH
LSAS SWITZERLAND FIR/UIR SQL TS FCST WI N4800 E00917 - N4718 E01017 - N4626 E00701 - N4721 E00620 - N4800 E00917 TOP FL350 MOV SE NC=
Turbolenza severa
LSAS SIGMET 6 VALID 231900/232130 LSZH
LSAS SWITZERLAND FIR SEV TURB FCST WI N4757 E00844 - N4741 E00954 - N4704 E00932 - N4642 E00811 - N4604 E00622 - N4605 E00531 - N4733 E00654 - N4757 E00844 SFC/FL100 MOV SE INTSF=



MetMap, La meteo Aeronautica in un colpo d'occhio ! - Copyright ORBIFLY Dicembre 2007 - Disclaimer

ORBIFLY MET'MAP TEAM :

Programmazione e sviluppo : Alexandra Zaïnal
Concezione e sviluppo : Baudouin d'Aumeries
Co-Programmazione e sviluppo : Marc-Olivier Méhu
Supporto tecnico e logistico : Manuel Goepfert
Aiuto per la traduzione : Arnaldo La Scala

Contatto : metmap@orbifly.com




FONTI E CREDITI :

   NOAA